createdAt,value
2016-12-17T00:00:14.066Z,970.57
2016-12-17T00:01:13.753Z,970.57
2016-12-17T00:02:16.019Z,970.53
2016-12-17T00:03:10.798Z,970.60
2016-12-17T00:04:12.418Z,970.61
2016-12-17T00:05:13.192Z,970.60
2016-12-17T00:06:14.148Z,970.59
2016-12-17T00:07:13.075Z,970.59
2016-12-17T00:08:13.098Z,970.57
2016-12-17T00:09:13.904Z,970.60
2016-12-17T00:10:12.556Z,970.59
2016-12-17T00:11:13.165Z,970.57
2016-12-17T00:12:12.957Z,970.61
2016-12-17T00:13:13.951Z,970.55
2016-12-17T00:14:13.322Z,970.58
2016-12-17T00:15:12.892Z,970.59
2016-12-17T00:16:13.164Z,970.59
2016-12-17T00:17:12.884Z,970.55
2016-12-17T00:18:15.790Z,970.54
2016-12-17T00:19:13.172Z,970.54
2016-12-17T00:20:12.808Z,970.55
2016-12-17T00:21:13.618Z,970.57
2016-12-17T00:22:12.431Z,970.56
2016-12-17T00:23:13.465Z,970.53
2016-12-17T00:24:13.393Z,970.56
2016-12-17T00:25:13.310Z,970.58
2016-12-17T00:26:12.872Z,970.57
2016-12-17T00:27:13.053Z,970.51
2016-12-17T00:28:13.690Z,970.52
2016-12-17T00:29:15.312Z,970.61
2016-12-17T00:30:13.320Z,970.64
2016-12-17T00:31:13.266Z,970.67
2016-12-17T00:32:13.040Z,970.64
2016-12-17T00:33:13.806Z,970.59
2016-12-17T00:34:13.042Z,970.63
2016-12-17T00:35:11.948Z,970.60
2016-12-17T00:36:12.735Z,970.64
2016-12-17T00:37:15.125Z,970.65
2016-12-17T00:38:12.855Z,970.64
2016-12-17T00:39:14.044Z,970.65
2016-12-17T00:40:13.771Z,970.64
2016-12-17T00:41:14.330Z,970.63
2016-12-17T00:42:13.822Z,970.62
2016-12-17T00:43:11.170Z,970.65
2016-12-17T00:44:13.082Z,970.64
2016-12-17T00:45:13.468Z,970.65
2016-12-17T00:46:14.245Z,970.65
2016-12-17T00:47:11.959Z,970.70
2016-12-17T00:48:13.217Z,970.69
2016-12-17T00:49:13.141Z,970.69
2016-12-17T00:50:13.111Z,970.72
2016-12-17T00:51:20.586Z,970.72
2016-12-17T00:52:13.856Z,970.69
2016-12-17T00:53:12.487Z,970.73
2016-12-17T00:54:16.329Z,970.72
2016-12-17T00:55:14.082Z,970.72
2016-12-17T00:56:12.827Z,970.71
2016-12-17T00:57:13.030Z,970.76
2016-12-17T00:58:12.993Z,970.77
2016-12-17T00:59:10.547Z,970.78
2016-12-17T01:00:13.588Z,970.78
2016-12-17T01:01:13.070Z,970.86
2016-12-17T01:02:10.675Z,970.90
2016-12-17T01:03:14.240Z,970.84
2016-12-17T01:04:13.169Z,970.85
2016-12-17T01:05:14.243Z,970.85
2016-12-17T01:06:14.101Z,970.89
2016-12-17T01:07:14.250Z,970.87
2016-12-17T01:08:14.203Z,970.92
2016-12-17T01:09:14.880Z,970.90
2016-12-17T01:10:11.667Z,970.92
2016-12-17T01:11:12.670Z,970.93
2016-12-17T01:12:19.495Z,970.90
2016-12-17T01:13:13.600Z,970.93
2016-12-17T01:14:13.460Z,970.95
2016-12-17T01:15:12.650Z,970.94
2016-12-17T01:16:13.818Z,970.92
2016-12-17T01:17:14.186Z,970.98
2016-12-17T01:18:14.967Z,970.93
2016-12-17T01:19:13.400Z,970.95
2016-12-17T01:20:14.644Z,970.93
2016-12-17T01:21:12.755Z,970.91
2016-12-17T01:22:14.012Z,970.96
2016-12-17T01:23:13.375Z,970.97
2016-12-17T01:24:15.269Z,970.97
2016-12-17T01:25:13.011Z,970.98
2016-12-17T01:26:11.997Z,970.99
2016-12-17T01:27:13.703Z,971.00
2016-12-17T01:28:15.687Z,971.04
2016-12-17T01:29:13.793Z,971.05
2016-12-17T01:30:13.377Z,971.02
2016-12-17T01:31:13.765Z,971.04
2016-12-17T01:32:13.481Z,971.02
2016-12-17T01:33:14.476Z,970.96
2016-12-17T01:34:14.225Z,971.00
2016-12-17T01:35:13.927Z,970.99
2016-12-17T01:36:14.722Z,971.02
2016-12-17T01:37:12.888Z,971.04
2016-12-17T01:38:13.238Z,971.00
2016-12-17T01:39:13.943Z,971.00
2016-12-17T01:40:13.354Z,971.04
2016-12-17T01:41:15.287Z,971.03
2016-12-17T01:42:14.006Z,971.04
2016-12-17T01:43:13.013Z,971.06
2016-12-17T01:44:10.511Z,971.09
2016-12-17T01:45:18.654Z,971.08
2016-12-17T01:46:14.029Z,971.09
2016-12-17T01:47:12.945Z,971.11
2016-12-17T01:48:10.810Z,971.14
2016-12-17T01:49:13.055Z,971.10
2016-12-17T01:50:14.017Z,971.12
2016-12-17T01:51:13.562Z,971.13
2016-12-17T01:52:13.559Z,971.15
2016-12-17T01:53:12.446Z,971.13
2016-12-17T01:54:13.340Z,971.18
2016-12-17T01:55:15.366Z,971.18
2016-12-17T01:56:12.397Z,971.16
2016-12-17T01:57:13.674Z,971.17
2016-12-17T01:58:13.722Z,971.20
2016-12-17T01:59:13.427Z,971.19
2016-12-17T02:00:13.853Z,971.20
2016-12-17T02:01:15.371Z,971.21
2016-12-17T02:02:14.042Z,971.22
2016-12-17T02:03:15.347Z,971.25
2016-12-17T02:04:15.117Z,971.27
2016-12-17T02:05:13.007Z,971.19
2016-12-17T02:06:13.945Z,971.23
2016-12-17T02:07:11.222Z,971.21
2016-12-17T02:08:13.204Z,971.22
2016-12-17T02:09:13.695Z,971.22
2016-12-17T02:10:15.017Z,971.21
2016-12-17T02:11:13.712Z,971.20
2016-12-17T02:12:14.090Z,971.18
2016-12-17T02:13:13.852Z,971.21
2016-12-17T02:14:14.435Z,971.26
2016-12-17T02:15:13.613Z,971.25
2016-12-17T02:16:16.090Z,971.23
2016-12-17T02:17:10.865Z,971.24
2016-12-17T02:18:13.255Z,971.21
2016-12-17T02:19:13.797Z,971.25
2016-12-17T02:20:13.274Z,971.23
2016-12-17T02:21:14.186Z,971.26
2016-12-17T02:22:13.550Z,971.24
2016-12-17T02:23:11.660Z,971.25
2016-12-17T02:24:13.567Z,971.28
2016-12-17T02:25:13.155Z,971.30
2016-12-17T02:26:13.518Z,971.25
2016-12-17T02:27:12.968Z,971.25
2016-12-17T02:28:13.052Z,971.25
2016-12-17T02:29:11.621Z,971.26
2016-12-17T02:30:13.308Z,971.25
2016-12-17T02:31:15.957Z,971.26
2016-12-17T02:32:13.618Z,971.21
2016-12-17T02:33:13.582Z,971.23
2016-12-17T02:34:14.244Z,971.21
2016-12-17T02:35:10.683Z,971.25
2016-12-17T02:36:12.528Z,971.22
2016-12-17T02:37:13.016Z,971.24
2016-12-17T02:38:14.505Z,971.29
2016-12-17T02:39:13.230Z,971.25
2016-12-17T02:40:13.945Z,971.24
2016-12-17T02:41:12.744Z,971.26
2016-12-17T02:42:11.548Z,971.25
2016-12-17T02:43:14.243Z,971.29
2016-12-17T02:44:13.204Z,971.29
2016-12-17T02:45:13.177Z,971.26
2016-12-17T02:46:10.392Z,971.30
2016-12-17T02:47:13.000Z,971.28
2016-12-17T02:48:13.863Z,971.31
2016-12-17T02:49:12.302Z,971.36
2016-12-17T02:50:13.972Z,971.37
2016-12-17T02:51:15.940Z,971.34
2016-12-17T02:52:13.994Z,971.40
2016-12-17T02:53:13.331Z,971.41
2016-12-17T02:54:13.892Z,971.40
2016-12-17T02:55:13.147Z,971.45
2016-12-17T02:56:12.859Z,971.44
2016-12-17T02:57:12.640Z,971.45
2016-12-17T02:58:14.805Z,971.40
2016-12-17T02:59:12.868Z,971.45
2016-12-17T03:00:13.308Z,971.43
2016-12-17T03:01:13.175Z,971.42
2016-12-17T03:02:13.627Z,971.41
2016-12-17T03:03:13.772Z,971.43
2016-12-17T03:04:10.605Z,971.41
2016-12-17T03:05:12.856Z,971.40
2016-12-17T03:06:13.828Z,971.38
2016-12-17T03:07:10.045Z,971.37
2016-12-17T03:08:14.237Z,971.37
2016-12-17T03:09:13.559Z,971.37
2016-12-17T03:10:14.470Z,971.34
2016-12-17T03:11:14.480Z,971.37
2016-12-17T03:12:12.175Z,971.35
2016-12-17T03:13:13.238Z,971.35
2016-12-17T03:14:12.883Z,971.31
2016-12-17T03:15:12.848Z,971.37
2016-12-17T03:16:12.487Z,971.34
2016-12-17T03:17:14.045Z,971.35
2016-12-17T03:18:13.003Z,971.34
2016-12-17T03:19:13.724Z,971.36
2016-12-17T03:20:13.952Z,971.42
2016-12-17T03:21:12.819Z,971.41
2016-12-17T03:22:14.687Z,971.37
2016-12-17T03:23:12.416Z,971.39
2016-12-17T03:24:13.118Z,971.39
2016-12-17T03:25:11.751Z,971.38
2016-12-17T03:26:13.217Z,971.37
2016-12-17T03:27:13.605Z,971.37
2016-12-17T03:28:13.341Z,971.39
2016-12-17T03:29:13.477Z,971.39
2016-12-17T03:30:13.907Z,971.34
2016-12-17T03:31:12.882Z,971.33
2016-12-17T03:32:14.615Z,971.36
2016-12-17T03:33:13.626Z,971.33
2016-12-17T03:34:13.537Z,971.34
2016-12-17T03:35:13.153Z,971.33
2016-12-17T03:36:13.682Z,971.33
2016-12-17T03:37:16.211Z,971.34
2016-12-17T03:38:14.170Z,971.31
2016-12-17T03:39:15.491Z,971.29
2016-12-17T03:40:13.555Z,971.28
2016-12-17T03:41:11.224Z,971.30
2016-12-17T03:42:13.582Z,971.28
2016-12-17T03:43:13.627Z,971.33
2016-12-17T03:44:12.359Z,971.33
2016-12-17T03:45:13.314Z,971.29
2016-12-17T03:46:14.089Z,971.32
2016-12-17T03:47:13.123Z,971.34
2016-12-17T03:48:12.843Z,971.26
2016-12-17T03:49:11.309Z,971.25
2016-12-17T03:50:14.320Z,971.28
2016-12-17T03:51:13.342Z,971.28
2016-12-17T03:52:13.884Z,971.29
2016-12-17T03:53:13.694Z,971.29
2016-12-17T03:54:13.520Z,971.26
2016-12-17T03:55:14.189Z,971.27
2016-12-17T03:56:14.849Z,971.28
2016-12-17T03:57:13.622Z,971.24
2016-12-17T03:58:16.321Z,971.21
2016-12-17T03:59:13.522Z,971.25
2016-12-17T04:00:16.013Z,971.23
2016-12-17T04:01:13.788Z,971.21
2016-12-17T04:02:13.105Z,971.21
2016-12-17T04:03:14.127Z,971.22
2016-12-17T04:04:13.142Z,971.21
2016-12-17T04:05:13.681Z,971.23
2016-12-17T04:06:13.645Z,971.18
2016-12-17T04:07:14.346Z,971.20
2016-12-17T04:08:12.904Z,971.18
2016-12-17T04:09:14.602Z,971.22
2016-12-17T04:10:14.560Z,971.18
2016-12-17T04:11:13.956Z,971.21
2016-12-17T04:12:11.751Z,971.21
2016-12-17T04:13:13.199Z,971.19
2016-12-17T04:14:14.822Z,971.19
2016-12-17T04:15:13.840Z,971.21
2016-12-17T04:16:13.948Z,971.17
2016-12-17T04:17:14.374Z,971.19
2016-12-17T04:18:13.360Z,971.19
2016-12-17T04:19:13.444Z,971.20
2016-12-17T04:20:13.455Z,971.22
2016-12-17T04:21:13.624Z,971.23
2016-12-17T04:22:13.719Z,971.21
2016-12-17T04:23:12.709Z,971.22
2016-12-17T04:24:13.097Z,971.23
2016-12-17T04:25:13.297Z,971.19
2016-12-17T04:26:13.313Z,971.26
2016-12-17T04:27:14.485Z,971.26
2016-12-17T04:28:17.265Z,971.26
2016-12-17T04:29:13.984Z,971.25
2016-12-17T04:30:13.240Z,971.27
2016-12-17T04:31:13.918Z,971.24
2016-12-17T04:32:13.547Z,971.22
2016-12-17T04:33:13.593Z,971.21
2016-12-17T04:34:14.356Z,971.19
2016-12-17T04:35:13.430Z,971.22
2016-12-17T04:36:13.392Z,971.21
2016-12-17T04:37:12.563Z,971.15
2016-12-17T04:38:20.247Z,971.18
2016-12-17T04:39:12.187Z,971.16
2016-12-17T04:40:13.406Z,971.18
2016-12-17T04:41:15.333Z,971.22
2016-12-17T04:42:14.080Z,971.23
2016-12-17T04:43:12.675Z,971.26
2016-12-17T04:44:14.995Z,971.23
2016-12-17T04:45:12.565Z,971.27
2016-12-17T04:46:13.587Z,971.28
2016-12-17T04:47:13.647Z,971.24
2016-12-17T04:48:13.422Z,971.26
2016-12-17T04:49:12.846Z,971.28
2016-12-17T04:50:12.782Z,971.29
2016-12-17T04:51:11.445Z,971.26
2016-12-17T04:52:13.331Z,971.28
2016-12-17T04:53:14.026Z,971.28
2016-12-17T04:54:13.095Z,971.29
2016-12-17T04:55:13.185Z,971.29
2016-12-17T04:56:14.284Z,971.27
2016-12-17T04:57:13.361Z,971.24
2016-12-17T04:58:14.056Z,971.23
2016-12-17T04:59:14.241Z,971.25
2016-12-17T05:00:13.064Z,971.27
2016-12-17T05:01:12.681Z,971.25
2016-12-17T05:02:14.385Z,971.22
2016-12-17T05:03:13.527Z,971.22
2016-12-17T05:04:12.545Z,971.20
2016-12-17T05:05:14.932Z,971.26
2016-12-17T05:06:18.358Z,971.22
2016-12-17T05:07:14.259Z,971.23
2016-12-17T05:08:13.651Z,971.28
2016-12-17T05:09:14.272Z,971.29
2016-12-17T05:10:13.232Z,971.30
2016-12-17T05:11:13.671Z,971.31
2016-12-17T05:12:14.177Z,971.34
2016-12-17T05:13:13.106Z,971.34
2016-12-17T05:14:13.042Z,971.33
2016-12-17T05:15:12.638Z,971.36
2016-12-17T05:16:14.231Z,971.36
2016-12-17T05:17:14.023Z,971.40
2016-12-17T05:18:14.178Z,971.43
2016-12-17T05:19:13.702Z,971.44
2016-12-17T05:20:16.207Z,971.43
2016-12-17T05:21:14.010Z,971.47
2016-12-17T05:22:14.119Z,971.47
2016-12-17T05:23:13.655Z,971.49
2016-12-17T05:24:16.736Z,971.48
2016-12-17T05:25:19.049Z,971.52
2016-12-17T05:26:14.916Z,971.50
2016-12-17T05:27:13.456Z,971.50
2016-12-17T05:28:13.425Z,971.51
2016-12-17T05:29:14.407Z,971.53
2016-12-17T05:30:13.666Z,971.57
2016-12-17T05:31:15.585Z,971.55
2016-12-17T05:32:17.319Z,971.59
2016-12-17T05:33:13.261Z,971.61
2016-12-17T05:34:13.201Z,971.64
2016-12-17T05:35:13.000Z,971.62
2016-12-17T05:36:12.651Z,971.66
2016-12-17T05:37:13.206Z,971.64
2016-12-17T05:38:13.365Z,971.66
2016-12-17T05:39:13.767Z,971.62
2016-12-17T05:40:11.614Z,971.66
2016-12-17T05:41:13.217Z,971.69
2016-12-17T05:42:13.430Z,971.70
2016-12-17T05:43:12.993Z,971.72
2016-12-17T05:44:13.307Z,971.79
2016-12-17T05:45:10.448Z,971.77
2016-12-17T05:46:13.238Z,971.77
2016-12-17T05:47:11.625Z,971.77
2016-12-17T05:48:13.294Z,971.76
2016-12-17T05:49:13.795Z,971.79
2016-12-17T05:50:13.579Z,971.79
2016-12-17T05:51:14.486Z,971.82
2016-12-17T05:52:13.403Z,971.77
2016-12-17T05:53:13.480Z,971.79
2016-12-17T05:54:13.358Z,971.84
2016-12-17T05:55:13.846Z,971.87
2016-12-17T05:56:12.327Z,971.87
2016-12-17T05:57:13.486Z,971.89
2016-12-17T05:58:13.239Z,971.93
2016-12-17T05:59:13.443Z,971.89
2016-12-17T06:00:11.080Z,971.86
2016-12-17T06:01:14.366Z,971.93
2016-12-17T06:02:13.455Z,971.92
2016-12-17T06:03:13.520Z,971.93
2016-12-17T06:04:13.619Z,971.97
2016-12-17T06:05:13.347Z,971.93
2016-12-17T06:06:11.660Z,971.96
2016-12-17T06:07:12.881Z,971.97
2016-12-17T06:08:12.954Z,972.01
2016-12-17T06:09:13.229Z,972.02
2016-12-17T06:10:13.185Z,972.05
2016-12-17T06:11:14.030Z,972.09
2016-12-17T06:12:13.440Z,972.09
2016-12-17T06:13:13.690Z,972.13
2016-12-17T06:14:13.528Z,972.10
2016-12-17T06:15:11.985Z,972.16
2016-12-17T06:16:14.769Z,972.16
2016-12-17T06:17:13.520Z,972.15
2016-12-17T06:18:13.562Z,972.12
2016-12-17T06:19:11.797Z,972.16
2016-12-17T06:20:14.171Z,972.19
2016-12-17T06:21:13.437Z,972.20
2016-12-17T06:22:13.887Z,972.21
2016-12-17T06:23:13.450Z,972.22
2016-12-17T06:24:13.904Z,972.22
2016-12-17T06:25:13.393Z,972.19
2016-12-17T06:26:10.609Z,972.21
2016-12-17T06:27:13.825Z,972.23
2016-12-17T06:28:13.343Z,972.20
2016-12-17T06:29:13.194Z,972.19
2016-12-17T06:30:12.000Z,972.20
2016-12-17T06:31:13.931Z,972.21
2016-12-17T06:32:13.455Z,972.21
2016-12-17T06:33:13.427Z,972.18
2016-12-17T06:34:13.237Z,972.23
2016-12-17T06:35:14.087Z,972.25
2016-12-17T06:36:12.748Z,972.25
2016-12-17T06:37:13.179Z,972.25
2016-12-17T06:38:13.675Z,972.24
2016-12-17T06:39:11.022Z,972.25
2016-12-17T06:40:12.455Z,972.26
2016-12-17T06:41:13.810Z,972.29
2016-12-17T06:42:12.926Z,972.29
2016-12-17T06:43:13.147Z,972.27
2016-12-17T06:44:13.503Z,972.31
2016-12-17T06:45:12.243Z,972.34
2016-12-17T06:46:14.297Z,972.33
2016-12-17T06:47:12.654Z,972.42
2016-12-17T06:48:11.484Z,972.40
2016-12-17T06:49:13.664Z,972.40
2016-12-17T06:50:14.577Z,972.50
2016-12-17T06:51:13.550Z,972.45
2016-12-17T06:52:11.549Z,972.47
2016-12-17T06:53:13.007Z,972.46
2016-12-17T06:54:13.896Z,972.51
2016-12-17T06:55:13.331Z,972.52
2016-12-17T06:56:12.366Z,972.52
2016-12-17T06:57:14.256Z,972.55
2016-12-17T06:58:13.113Z,972.56
2016-12-17T06:59:13.607Z,972.58
2016-12-17T07:00:14.336Z,972.58
2016-12-17T07:01:12.781Z,972.54
2016-12-17T07:02:12.034Z,972.57
2016-12-17T07:03:13.338Z,972.62
2016-12-17T07:04:13.526Z,972.64
2016-12-17T07:05:12.087Z,972.63
2016-12-17T07:06:12.747Z,972.59
2016-12-17T07:07:13.584Z,972.66
2016-12-17T07:08:14.020Z,972.64
2016-12-17T07:09:12.685Z,972.66
2016-12-17T07:10:13.718Z,972.65
2016-12-17T07:11:13.950Z,972.70
2016-12-17T07:12:13.034Z,972.71
2016-12-17T07:13:12.793Z,972.69
2016-12-17T07:14:13.219Z,972.73
2016-12-17T07:15:13.523Z,972.72
2016-12-17T07:16:14.020Z,972.74
2016-12-17T07:17:12.993Z,972.73
2016-12-17T07:18:13.813Z,972.76
2016-12-17T07:19:10.906Z,972.77
2016-12-17T07:20:13.272Z,972.77
2016-12-17T07:21:12.924Z,972.75
2016-12-17T07:22:13.263Z,972.79
2016-12-17T07:23:12.954Z,972.81
2016-12-17T07:24:12.894Z,972.80
2016-12-17T07:25:13.616Z,972.80
2016-12-17T07:26:13.295Z,972.83
2016-12-17T07:27:14.562Z,972.82
2016-12-17T07:28:14.331Z,972.84
2016-12-17T07:29:12.396Z,972.84
2016-12-17T07:30:09.838Z,972.85
2016-12-17T07:31:14.456Z,972.85
2016-12-17T07:32:13.521Z,972.85
2016-12-17T07:33:13.760Z,972.84
2016-12-17T07:34:13.492Z,972.84
2016-12-17T07:35:13.006Z,972.84
2016-12-17T07:36:13.548Z,972.87
2016-12-17T07:37:13.488Z,972.91
2016-12-17T07:38:13.513Z,972.92
2016-12-17T07:39:14.345Z,972.91
2016-12-17T07:40:13.794Z,972.98
2016-12-17T07:41:13.590Z,972.99
2016-12-17T07:42:11.213Z,972.97
2016-12-17T07:43:13.617Z,972.97
2016-12-17T07:44:15.518Z,973.00
2016-12-17T07:45:14.241Z,973.03
2016-12-17T07:46:13.778Z,973.03
2016-12-17T07:47:13.245Z,973.02
2016-12-17T07:48:13.568Z,973.06
2016-12-17T07:49:12.830Z,973.07
2016-12-17T07:50:13.158Z,973.12
2016-12-17T07:51:13.699Z,973.12
2016-12-17T07:52:13.710Z,973.14
2016-12-17T07:53:13.146Z,973.12
2016-12-17T07:54:13.597Z,973.10
2016-12-17T07:55:14.433Z,973.15
2016-12-17T07:56:14.417Z,973.13
2016-12-17T07:57:20.795Z,973.11
2016-12-17T07:58:12.882Z,973.13
2016-12-17T07:59:13.382Z,973.08
2016-12-17T08:00:13.243Z,973.09
2016-12-17T08:01:14.062Z,973.13
2016-12-17T08:02:13.566Z,973.10
2016-12-17T08:03:14.607Z,973.12
2016-12-17T08:04:13.390Z,973.12
2016-12-17T08:05:13.328Z,973.11
2016-12-17T08:06:13.435Z,973.11
2016-12-17T08:07:13.417Z,973.13
2016-12-17T08:08:13.384Z,973.10
2016-12-17T08:09:13.399Z,973.11
2016-12-17T08:10:12.916Z,973.08
2016-12-17T08:11:13.154Z,973.10
2016-12-17T08:12:12.908Z,973.11
2016-12-17T08:13:13.768Z,973.05
2016-12-17T08:14:11.031Z,973.04
2016-12-17T08:15:13.860Z,973.02
2016-12-17T08:16:11.413Z,973.03
2016-12-17T08:17:12.401Z,973.11
2016-12-17T08:18:11.767Z,973.06
2016-12-17T08:19:13.805Z,973.11
2016-12-17T08:20:11.954Z,973.09
2016-12-17T08:21:13.291Z,973.15
2016-12-17T08:22:12.977Z,973.19
2016-12-17T08:23:09.898Z,973.22
2016-12-17T08:24:13.397Z,973.23
2016-12-17T08:25:12.449Z,973.26
2016-12-17T08:26:12.514Z,973.23
2016-12-17T08:27:09.986Z,973.27
2016-12-17T08:28:13.304Z,973.22
2016-12-17T08:29:12.145Z,973.30
2016-12-17T08:30:11.798Z,973.28
2016-12-17T08:31:13.630Z,973.30
2016-12-17T08:32:14.014Z,973.34
2016-12-17T08:33:14.036Z,973.33
2016-12-17T08:34:15.534Z,973.39
2016-12-17T08:35:13.846Z,973.39
2016-12-17T08:36:12.576Z,973.40
2016-12-17T08:37:15.247Z,973.42
2016-12-17T08:38:14.254Z,973.40
2016-12-17T08:39:14.335Z,973.43
2016-12-17T08:40:15.178Z,973.43
2016-12-17T08:41:13.131Z,973.44
2016-12-17T08:42:12.604Z,973.49
2016-12-17T08:43:13.721Z,973.47
2016-12-17T08:44:14.326Z,973.43
2016-12-17T08:45:13.334Z,973.44
2016-12-17T08:46:13.435Z,973.44
2016-12-17T08:47:13.172Z,973.48
2016-12-17T08:48:14.846Z,973.43
2016-12-17T08:49:13.429Z,973.43
2016-12-17T08:50:14.365Z,973.44
2016-12-17T08:51:13.678Z,973.42
2016-12-17T08:52:13.386Z,973.45
2016-12-17T08:53:14.267Z,973.47
2016-12-17T08:54:12.919Z,973.48
2016-12-17T08:55:14.134Z,973.50
2016-12-17T08:56:13.641Z,973.52
2016-12-17T08:57:14.548Z,973.50
2016-12-17T08:58:10.371Z,973.51
2016-12-17T08:59:13.344Z,973.49
2016-12-17T09:00:13.355Z,973.50
2016-12-17T09:01:10.694Z,973.54
2016-12-17T09:02:15.392Z,973.49
2016-12-17T09:03:13.792Z,973.51
2016-12-17T09:04:13.686Z,973.51
2016-12-17T09:05:13.903Z,973.54
2016-12-17T09:06:13.416Z,973.54
2016-12-17T09:07:14.214Z,973.56
2016-12-17T09:08:15.246Z,973.55
2016-12-17T09:09:13.743Z,973.54
2016-12-17T09:10:15.893Z,973.55
2016-12-17T09:11:13.186Z,973.57
2016-12-17T09:12:10.819Z,973.55
2016-12-17T09:13:14.678Z,973.60
2016-12-17T09:14:13.885Z,973.59
2016-12-17T09:15:12.929Z,973.63
2016-12-17T09:16:13.455Z,973.64
2016-12-17T09:17:16.279Z,973.57
2016-12-17T09:18:13.292Z,973.69
2016-12-17T09:19:14.534Z,973.69
2016-12-17T09:20:13.544Z,973.74
2016-12-17T09:21:11.871Z,973.76
2016-12-17T09:22:13.163Z,973.76
2016-12-17T09:23:13.462Z,973.74
2016-12-17T09:24:09.193Z,973.71
2016-12-17T09:25:11.897Z,973.70
2016-12-17T09:26:13.707Z,973.67
2016-12-17T09:27:10.277Z,973.66
2016-12-17T09:28:13.126Z,973.66
2016-12-17T09:29:12.858Z,973.63
2016-12-17T09:30:13.027Z,973.63
2016-12-17T09:31:13.152Z,973.63
2016-12-17T09:32:14.540Z,973.61
2016-12-17T09:33:13.733Z,973.62
2016-12-17T09:34:15.418Z,973.65
2016-12-17T09:35:13.048Z,973.59
2016-12-17T09:36:11.842Z,973.66
2016-12-17T09:37:13.218Z,973.66
2016-12-17T09:38:14.792Z,973.66
2016-12-17T09:39:12.730Z,973.65
2016-12-17T09:40:11.140Z,973.68
2016-12-17T09:41:13.601Z,973.62
2016-12-17T09:42:13.316Z,973.71
2016-12-17T09:43:12.972Z,973.70
2016-12-17T09:44:13.397Z,973.64
2016-12-17T09:45:15.751Z,973.63
2016-12-17T09:46:13.605Z,973.63
2016-12-17T09:47:13.229Z,973.62
2016-12-17T09:48:13.400Z,973.64
2016-12-17T09:49:13.616Z,973.64
2016-12-17T09:50:14.697Z,973.63
2016-12-17T09:51:13.227Z,973.61
2016-12-17T09:52:13.224Z,973.61
2016-12-17T09:53:13.152Z,973.63
2016-12-17T09:54:13.604Z,973.59
2016-12-17T09:55:13.302Z,973.59
2016-12-17T09:56:20.302Z,973.59
2016-12-17T09:57:11.816Z,973.58
2016-12-17T09:58:12.848Z,973.55
2016-12-17T09:59:13.588Z,973.55
2016-12-17T10:00:12.997Z,973.55
2016-12-17T10:01:11.972Z,973.57
2016-12-17T10:02:13.257Z,973.56
2016-12-17T10:03:13.962Z,973.55
2016-12-17T10:04:13.939Z,973.38
2016-12-17T10:05:14.177Z,973.59
2016-12-17T10:06:19.285Z,973.57
2016-12-17T10:07:13.394Z,973.56
2016-12-17T10:08:10.547Z,973.59
2016-12-17T10:09:13.061Z,973.58
2016-12-17T10:10:14.082Z,973.63
2016-12-17T10:11:13.198Z,973.55
2016-12-17T10:12:12.959Z,973.59
2016-12-17T10:13:14.712Z,973.60
2016-12-17T10:14:14.647Z,973.56
2016-12-17T10:15:13.293Z,973.58
2016-12-17T10:16:11.476Z,973.56
2016-12-17T10:17:13.835Z,973.55
2016-12-17T10:18:13.621Z,973.57
2016-12-17T10:19:14.516Z,973.59
2016-12-17T10:20:12.014Z,973.54
2016-12-17T10:21:13.859Z,973.57
2016-12-17T10:22:13.035Z,973.60
2016-12-17T10:23:15.170Z,973.57
2016-12-17T10:24:13.441Z,973.55
2016-12-17T10:25:15.151Z,973.53
2016-12-17T10:26:13.221Z,973.55
2016-12-17T10:27:13.508Z,973.50
2016-12-17T10:28:13.076Z,973.50
2016-12-17T10:29:09.698Z,973.47
2016-12-17T10:30:11.880Z,973.46
2016-12-17T10:31:12.223Z,973.46
2016-12-17T10:32:13.232Z,973.45
2016-12-17T10:33:13.166Z,973.49
2016-12-17T10:34:13.695Z,973.43
2016-12-17T10:35:14.064Z,973.46
2016-12-17T10:36:12.990Z,973.46
2016-12-17T10:37:12.738Z,973.41
2016-12-17T10:38:13.367Z,973.41
2016-12-17T10:39:17.202Z,973.50
2016-12-17T10:40:12.995Z,973.50
2016-12-17T10:41:13.506Z,973.52
2016-12-17T10:42:15.376Z,973.49
2016-12-17T10:43:14.249Z,973.44
2016-12-17T10:44:14.113Z,973.50
2016-12-17T10:45:13.736Z,973.45
2016-12-17T10:46:13.614Z,973.44
2016-12-17T10:47:14.200Z,973.41
2016-12-17T10:48:13.238Z,973.43
2016-12-17T10:49:13.971Z,973.41
2016-12-17T10:50:12.944Z,973.36
2016-12-17T10:51:13.076Z,973.36
2016-12-17T10:52:14.144Z,973.33
2016-12-17T10:53:11.875Z,973.34
2016-12-17T10:54:13.664Z,973.35
2016-12-17T10:55:14.003Z,973.35
2016-12-17T10:56:13.682Z,973.32
2016-12-17T10:57:13.650Z,973.28
2016-12-17T10:58:13.391Z,973.29
2016-12-17T10:59:12.437Z,973.28
2016-12-17T11:00:11.213Z,973.31
2016-12-17T11:01:11.175Z,973.28
2016-12-17T11:02:12.454Z,973.30
2016-12-17T11:03:15.431Z,973.29
2016-12-17T11:04:13.284Z,973.27
2016-12-17T11:05:13.393Z,973.29
2016-12-17T11:06:13.020Z,973.33
2016-12-17T11:07:13.187Z,973.33
2016-12-17T11:08:13.501Z,973.34
2016-12-17T11:09:13.997Z,973.40
2016-12-17T11:10:14.948Z,973.35
2016-12-17T11:11:11.644Z,973.33
2016-12-17T11:12:14.310Z,973.36
2016-12-17T11:13:14.785Z,973.31
2016-12-17T11:14:13.178Z,973.26
2016-12-17T11:15:14.206Z,973.27
2016-12-17T11:16:13.725Z,973.28
2016-12-17T11:17:14.662Z,973.29
2016-12-17T11:18:14.048Z,973.28
2016-12-17T11:19:13.649Z,973.27
2016-12-17T11:20:13.883Z,973.32
2016-12-17T11:21:14.886Z,973.31
2016-12-17T11:22:13.939Z,973.25
2016-12-17T11:23:14.814Z,973.26
2016-12-17T11:24:11.511Z,973.31
2016-12-17T11:25:13.484Z,973.25
2016-12-17T11:26:12.199Z,973.26
2016-12-17T11:27:12.708Z,973.25
2016-12-17T11:28:13.048Z,973.24
2016-12-17T11:29:14.914Z,973.25
2016-12-17T11:30:14.849Z,973.21
2016-12-17T11:31:13.568Z,973.26
2016-12-17T11:32:13.556Z,973.23
2016-12-17T11:33:14.040Z,973.22
2016-12-17T11:34:12.613Z,973.25
2016-12-17T11:35:10.279Z,973.26
2016-12-17T11:36:13.058Z,973.26
2016-12-17T11:37:10.143Z,973.25
2016-12-17T11:38:13.890Z,973.24
2016-12-17T11:39:11.152Z,973.25
2016-12-17T11:40:13.652Z,973.25
2016-12-17T11:41:14.057Z,973.34
2016-12-17T11:42:13.906Z,973.27
2016-12-17T11:43:13.924Z,973.27
2016-12-17T11:44:14.685Z,973.24
2016-12-17T11:45:14.087Z,973.20
2016-12-17T11:46:12.308Z,973.20
2016-12-17T11:47:11.976Z,973.17
2016-12-17T11:48:13.606Z,973.16
2016-12-17T11:49:13.641Z,973.15
2016-12-17T11:50:14.259Z,973.12
2016-12-17T11:51:13.584Z,973.17
2016-12-17T11:52:11.361Z,973.16
2016-12-17T11:53:13.354Z,973.18
2016-12-17T11:54:15.247Z,973.13
2016-12-17T11:55:13.132Z,973.13
2016-12-17T11:56:10.937Z,973.12
2016-12-17T11:57:14.736Z,973.10
2016-12-17T11:58:13.479Z,973.16
2016-12-17T11:59:11.554Z,973.13
2016-12-17T12:00:13.674Z,973.15
2016-12-17T12:01:12.623Z,973.17
2016-12-17T12:02:15.833Z,973.14
2016-12-17T12:03:10.891Z,973.11
2016-12-17T12:04:13.041Z,973.13
2016-12-17T12:05:13.466Z,973.15
2016-12-17T12:06:14.216Z,973.12
2016-12-17T12:07:13.683Z,973.14
2016-12-17T12:08:14.270Z,973.13
2016-12-17T12:09:14.283Z,973.16
2016-12-17T12:10:13.377Z,973.17
2016-12-17T12:11:13.315Z,973.13
2016-12-17T12:12:13.673Z,973.15
2016-12-17T12:13:14.155Z,973.17
2016-12-17T12:14:13.302Z,973.16
2016-12-17T12:15:14.279Z,973.20
2016-12-17T12:16:11.920Z,973.22
2016-12-17T12:17:13.453Z,973.19
2016-12-17T12:18:13.831Z,973.16
2016-12-17T12:19:14.210Z,973.14
2016-12-17T12:20:14.104Z,973.15
2016-12-17T12:21:12.269Z,973.08
2016-12-17T12:22:13.427Z,973.08
2016-12-17T12:23:15.184Z,973.11
2016-12-17T12:24:13.371Z,973.11
2016-12-17T12:25:12.451Z,973.12
2016-12-17T12:26:13.565Z,973.11
2016-12-17T12:27:13.205Z,973.08
2016-12-17T12:28:13.171Z,973.09